Roberto Gallese

Olheiro - Deportivo Municipal
13 Nov 2027
Sábado
Processo

Personalidade

Adaptabilidade (1) Ambição (6) Controvérsia (1) Lealdade (1) Pressão (2) Profissionalismo (8) Espírito Esportivo (19) Temperamento (13)

Perfil

Estilo de Treinamento Democrático
Licença Continental Pro
Determinação 9
Gestão de Pessoas 9
Motivação 11
Disciplina 7
Satisfação no Trabalho
85%
Fadiga
0%
Função Olheiro
Salário 37.0K p/s
Contrato 14.03.2028

Desempenho

Comportamento Bom
Eficácia do Treinamento
30%
Desenvolvimento do Jogador
50%
Prevenção de Lesões
20%
Implementação Tática
30%

Eventos Recentes

Participou de uma reunião de recrutamento agora
Participou de uma reunião de recrutamento agora
Participou de uma reunião de recrutamento agora
Participou de uma reunião de recrutamento 7d atrás
Participou de uma reunião de recrutamento 7d atrás
Participou de uma reunião de recrutamento 7d atrás
Participou de uma reunião de recrutamento 7d atrás
Participou de uma reunião de recrutamento 7d atrás

Monitorando agora

79
Jogador Clube Status Habilidade Confiança Observado Última observação Último voto
Julio Alonso Huesca Ativo 122 / 113 40% 1 05.07.2027 -
Eoin Toal Bolton Wanderers Ativo 118 / 118 40% 1 05.07.2027 -
Álex Lebarbier Real Sociedad Ativo 99 / 105 40% 1 05.07.2027 -
Chineme Chinonso Ikorodu City Ativo 104 / 100 40% 4 30.05.2027 -
Markus Jensen Nacional Ativo 105 / 111 40% 2 28.05.2027 -
Borna Knezović Casarano Ativo 114 / 121 40% 2 27.05.2027 -
Miloš Jovičić Zabbar St. Patrick Ativo 90 / 103 40% 4 26.05.2027 -
Nicolás Azambuja Danubio Ativo 122 / 124 40% 3 26.05.2027 -
Lorenzo De Leo Renate Ativo 103 / 109 40% 2 25.05.2027 -
Cristian Peñate Barranquilla Ativo 85 / 100 40% 1 25.05.2027 -
Wilmar Cordoba Valledupar Ativo 85 / 86 40% 1 25.05.2027 -
Ichem Ferrah Pisa Ativo 113 / 117 40% 3 24.05.2027 -
Marco Rivas Tigre Ativo 84 / 92 40% 1 24.05.2027 -
Anthony da Costa Artigas Ativo 86 / 89 40% 1 24.05.2027 -
Luke Baartman Bidvest Wits Ativo 112 / 108 40% 3 20.05.2027 -
Adama Goïta Remo Stars Ativo 100 / 87 40% 3 18.05.2027 -
Ognjen Bondžulić Mladost Lucani Ativo 102 / 105 40% 1 18.05.2027 -
Sidiki Chérif Coventry City Ativo 117 / 132 40% 1 14.05.2027 -
Exequiel Mereles Nacional Ativo 107 / 106 40% 1 14.05.2027 -
Thiago Porley Sorrento Ativo 72 / 77 40% 1 13.05.2027 -
Darlvin Yeboah Bechem United Ativo 90 / 89 40% 3 11.05.2027 -
Oumar Camara Vitoria Guimaraes Ativo 126 / 138 40% 5 07.05.2027 -
Michael Noumon Heart of Lions Ativo 75 / 76 40% 2 07.05.2027 -
Sindre Walle Egeli Nottingham Forest Ativo 125 / 138 40% 3 04.05.2027 -
Babis Kostoulas Aston Villa Ativo 125 / 140 40% 2 04.05.2027 -
Ricardo Solbes Getafe Ativo 104 / 118 40% 2 03.05.2027 -
Emmanuel Nweke Smouha Ativo 86 / 90 40% 2 03.05.2027 -
Giuseppe Coppola Picerno Ativo 102 / 114 40% 1 01.05.2027 -
Tiziano Dornell Almagro Ativo 108 / 113 40% 1 30.04.2027 -
Dilan Godoy Vélez Ativo 106 / 122 40% 3 29.04.2027 -
Risilanu Ismail El-Kanemi Warriors Ativo 96 / 87 40% 1 28.04.2027 -
Inti López River Plate Ativo 97 / 97 40% 1 25.04.2027 -
Alagie Wally Veres Ativo 93 / 82 40% 1 22.04.2027 -
Albert Paintsil Liberty Professionals Ativo 66 / 68 40% 1 22.04.2027 -
Sunusi Audu New Edubiase United Ativo 75 / 74 40% 2 21.04.2027 -
Dramane Kamagaté USM Alger Ativo 105 / 111 40% 1 21.04.2027 -
Etsgar Cruz Chiapas Ativo 79 / 79 40% 2 19.04.2027 -
Abubakar Garba Nasarawa United Ativo 87 / 83 40% 1 15.04.2027 -
Matvii Burenko Vorskla Ativo 86 / 87 40% 2 12.04.2027 -
George Brown Sheffield Wednesday Ativo 108 / 98 40% 1 12.04.2027 -
Sergey Gaiduk Salyut Ativo 67 / 68 40% 1 12.04.2027 -
Facundo Rodríguez Talleres Ativo 88 / 104 40% 1 10.04.2027 -
Roberto Iliev Slavia Sofia Ativo 90 / 101 40% 2 07.04.2027 -
Lautaro Gutiérrez Girona Ativo 101 / 113 40% 1 06.04.2027 -
Tyrell Malacia Derby County Ativo 140 / 137 40% 1 17.12.2026 -
José Córdoba Norwich City Ativo 123 / 127 40% 1 17.12.2026 -
Álvaro Carreras Real Madrid Ativo 152 / 153 40% 1 17.12.2026 -
Petar Sučić Inter Ativo 145 / 160 40% 1 30.11.2026 Mais informações
César Tárrega Valencia Ativo 145 / 141 40% 1 30.11.2026 Mais informações
Franco Lorenzón San Lorenzo Negociando 110 / 119 40% 1 02.11.2026 Mais informações
Arsen Adamov Akhmat Grozny Ativo 122 / 112 40% 1 02.11.2026 Mais informações
Tobias Gulliksen Rapid Wien Ativo 114 / 109 40% 1 18.10.2026 -
Franco Sivetti Gimnasia y Tiro Ativo 101 / 112 40% 1 18.10.2026 -
Gonzalo Ríos Independiente Rivadavia Ativo 122 / 126 40% 1 18.10.2026 -
Reda Khadra Qarabag Ativo 120 / 115 40% 1 13.10.2026 -
Oussama Idrissi Ferencvaros Ativo 142 / 138 40% 1 13.10.2026 -
Franco Cristaldo Talleres Ativo 131 / 122 40% 1 13.10.2026 -
Carlos Sosa Carabobo Ativo 116 / 119 40% 1 09.10.2026 -
Juan Pablo Barinaga Patronato Ativo 110 / 105 40% 1 09.10.2026 -
Jesús Yendis Caracas Ativo 104 / 108 40% 1 08.10.2026 -
Francisco Gerometta Godoy Cruz Ativo 108 / 114 40% 2 06.10.2026 -
Nicolás Fernández Maipú Ativo 108 / 103 40% 1 06.10.2026 -
Juan Camilo Pérez Carabobo Ativo 114 / 110 40% 2 05.10.2026 -
Lorenzo Monti Temperley Ativo 103 / 115 40% 1 05.10.2026 -
Delvin Alfonzo Deportivo Tachira Ativo 109 / 121 40% 1 05.10.2026 -
Lautaro Mora Huracán Ativo 105 / 119 40% 1 13.09.2026 -
Kevin González Trujillanos Ativo 94 / 99 40% 1 13.09.2026 -
Ángelo Lucena Carabobo Ativo 97 / 109 40% 1 11.09.2026 -
Diego Crego Independiente Rivadavia Ativo 111 / 106 40% 1 09.09.2026 -
Paul Samson Plateau United Ativo 109 / 93 40% 1 09.09.2026 -
Facundo Miño Deportivo Riestra Ativo 127 / 113 40% 1 07.09.2026 -
Mathías de Ritis San Lorenzo Ativo 112 / 112 40% 1 07.09.2026 -
Diego Arango Llaneros Ativo 95 / 103 40% 1 07.09.2026 -
Sergio Sulbarán Zamora Ativo 98 / 96 40% 1 04.08.2026 -
Nahuel Brunet Godoy Cruz Ativo 113 / 112 40% 1 04.08.2026 -
Lucas Arzamendia Atenas Ativo 104 / 102 40% 1 03.08.2026 -
Pablo Galdames Burgos Ativo 127 / 126 40% 1 01.08.2026 -
Juan Cruz Komar Rosario Central Ativo 119 / 126 40% 1 01.08.2026 -
Lautaro Lusnig Deportivo Tachira Ativo 118 / 111 40% 1 01.08.2026 -